YM Masculinity — A8ZD2 — position and weather

sailwx.info

Track history (hours):
 
Tides and Currents Weather Stations Pressure Air Temp Water Temp Dewpoint Dewpoint Depression Visibility Wind Speed Wind Dir Waves Ship Positions

YM Masculinity

Last reported at 2017-Sep-19 21:28 UTC. Time now 2017-Sep-25 11:26 UTC.
Position N 38°29' W 123°58'.

Length 306 m; draft 10.6 m.

Type: Ship (hazmat cat A). MMSI: 636015183.

Date/timePositionNaut miles runAvg speedWind from/ knotsBaromVisibWave heightAir tempDewpointWater temp
2017-Sep-19 21:28N 38°29' W 123°58'612.5
2017-Sep-19 21:00N 38°25' W 123°51'612.7
2017-Sep-19 20:30N 38°22' W 123°45'612.8
2017-Sep-19 20:00N 38°18' W 123°38'613.0
2017-Sep-19 19:30N 38°15' W 123°31'613.0
2017-Sep-19 19:00N 38°11' W 123°24'510.6
2017-Sep-19 18:30N 38°08' W 123°19'5 9.5
2017-Sep-19 18:00N 38°04' W 123°15'5 9.6
2017-Sep-19 17:30N 38°01' W 123°11'5 9.5
2017-Sep-19 17:00N 37°58' W 123°07'5 9.6
2017-Sep-19 16:30N 37°55' W 123°01'5 9.5
2017-Sep-19 16:00N 37°53' W 122°56'5 9.6
2017-Sep-19 15:30N 37°50' W 122°51'5 9.7
2017-Sep-19 15:00N 37°48' W 122°46'4 8.1
2017-Sep-19 14:31N 37°46' W 122°41'816.9
2017-Sep-19 14:00N 37°48' W 122°31'612.4
2017-Sep-19 13:30N 37°49' W 122°23'3 7.0
2017-Sep-19 13:00N 37°48' W 122°19'1 1.9
2017-Sep-19 12:31N 37°48' W 122°17'1 1.9
2017-Sep-19 12:00N 37°48' W 122°19'0 0.0
2017-Sep-19 11:28N 37°48' W 122°19'0 0.0
2017-Sep-19 10:58N 37°48' W 122°19'0 0.0
2017-Sep-19 10:28N 37°48' W 122°19'0 0.0
2017-Sep-19 09:58N 37°48' W 122°19'0 0.0
2017-Sep-19 09:28N 37°48' W 122°19'0 0.0
2017-Sep-19 08:58N 37°48' W 122°19'0 0.0
2017-Sep-19 08:28N 37°48' W 122°19'0 0.0
2017-Sep-19 07:58N 37°48' W 122°19'0 0.0
2017-Sep-19 07:28N 37°48' W 122°19'0 0.0
2017-Sep-19 06:58N 37°48' W 122°19'0 0.0
2017-Sep-19 06:28N 37°48' W 122°19'0 0.0
2017-Sep-19 05:58N 37°48' W 122°19'0 0.0
2017-Sep-19 05:28N 37°48' W 122°19'0 0.0
2017-Sep-19 04:58N 37°48' W 122°19'0 0.0
2017-Sep-19 04:28N 37°48' W 122°19'0 0.0
2017-Sep-19 03:58N 37°48' W 122°19'0 0.0
2017-Sep-19 03:28N 37°48' W 122°19'0 0.0
2017-Sep-19 02:58N 37°48' W 122°19'0 0.0
2017-Sep-19 02:28N 37°48' W 122°19'0 0.0
2017-Sep-19 01:58N 37°48' W 122°19'0 0.0
2017-Sep-19 01:28N 37°48' W 122°19'0 0.0
2017-Sep-19 00:58N 37°48' W 122°19'0 0.0
2017-Sep-19 00:28N 37°48' W 122°19'0 0.0
2017-Sep-18 23:58N 37°48' W 122°19'0 0.0
2017-Sep-18 23:28N 37°48' W 122°19'0 0.0
2017-Sep-18 22:58N 37°48' W 122°19'0 0.0
2017-Sep-18 22:28N 37°48' W 122°19'0 0.0
2017-Sep-18 21:58N 37°48' W 122°19'0 0.0
2017-Sep-18 21:28N 37°48' W 122°19'0 0.0
2017-Sep-18 20:58N 37°48' W 122°19'0 0.0
2017-Sep-18 20:28N 37°48' W 122°19'0 0.0
2017-Sep-18 19:58N 37°48' W 122°19'0 0.0
2017-Sep-18 19:28N 37°48' W 122°19'0 0.0
2017-Sep-18 18:58N 37°48' W 122°19'0 0.0
2017-Sep-18 18:28N 37°48' W 122°19'0 0.0
2017-Sep-18 17:58N 37°48' W 122°19'0 0.0
2017-Sep-18 17:28N 37°48' W 122°19'0 0.0
2017-Sep-18 16:58N 37°48' W 122°19'0 0.0
2017-Sep-18 16:28N 37°48' W 122°19'0 0.0
2017-Sep-18 15:58N 37°48' W 122°19'0 0.0
2017-Sep-18 15:28N 37°48' W 122°19'0 0.0
2017-Sep-18 14:58N 37°48' W 122°19'0 0.0
2017-Sep-18 14:28N 37°48' W 122°19'0 0.0
2017-Sep-18 13:58N 37°48' W 122°19'0 0.0
2017-Sep-18 13:28N 37°48' W 122°19'0 0.0
2017-Sep-18 12:58N 37°48' W 122°19'0 0.0
2017-Sep-18 12:28N 37°48' W 122°19'0 0.0
2017-Sep-18 11:58N 37°48' W 122°19'0 0.0
2017-Sep-18 11:28N 37°48' W 122°19'0 0.0
2017-Sep-18 10:58N 37°48' W 122°19'0 0.0
2017-Sep-18 10:25N 37°48' W 122°19'0 0.0
2017-Sep-18 09:58N 37°48' W 122°19'0 0.0
2017-Sep-18 09:28N 37°48' W 122°19'0 0.0
2017-Sep-18 08:58N 37°48' W 122°19'0 0.0
2017-Sep-18 08:28N 37°48' W 122°19'0 0.0
2017-Sep-18 07:58N 37°48' W 122°19'0 0.0
2017-Sep-18 07:28N 37°48' W 122°19'0 0.0
2017-Sep-18 06:58N 37°48' W 122°19'0 0.0
2017-Sep-18 06:28N 37°48' W 122°19'0 0.0
2017-Sep-18 05:58N 37°48' W 122°19'0 0.0
2017-Sep-18 05:28N 37°48' W 122°19'0 0.7
2017-Sep-18 05:00N 37°48' W 122°19'3 6.0
2017-Sep-18 04:30N 37°48' W 122°23'611.4
2017-Sep-18 04:00N 37°48' W 122°30'917.5
2017-Sep-18 03:31N 37°45' W 122°40'4 8.1
2017-Sep-18 03:00N 37°40' W 122°40'4 8.3
2017-Sep-18 02:30N 37°36' W 122°39'4 8.4
2017-Sep-18 02:00N 37°32' W 122°39'5 9.2
2017-Sep-18 01:30N 37°27' W 122°40'5 9.9
2017-Sep-18 01:01N 37°23' W 122°40'5 9.7
2017-Sep-18 00:30N 37°18' W 122°40'918.6
2017-Sep-18 00:00N 37°09' W 122°37'1019.4
2017-Sep-17 23:28N 36°59' W 122°33'612.2
2017-Sep-17 23:00N 36°53' W 122°31'1121.6
2017-Sep-17 22:30N 36°43' W 122°25'1121.7
2017-Sep-17 22:00N 36°33' W 122°20'2622.0
2017-Sep-17 20:49N 36°09' W 122°08'6721.7
2017-Sep-17 17:45N 35°08' W 121°37'521.7
2017-Sep-17 17:30N 35°03' W 121°34'1921.8
2017-Sep-17 16:38N 34°45' W 121°26'321.9
2017-Sep-17 16:30N 34°43' W 121°24'1121.6
2017-Sep-17 16:00N 34°33' W 121°19'1121.8
2017-Sep-17 15:30N 34°23' W 121°14'1121.8
2017-Sep-17 15:00N 34°12' W 121°09'1121.4
2017-Sep-17 14:31N 34°03' W 121°04'611.9
2017-Sep-17 14:00N 33°59' W 120°59'611.5
2017-Sep-17 13:30N 33°56' W 120°53'611.4
2017-Sep-17 13:00N 33°53' W 120°47'611.5
2017-Sep-17 12:30N 33°49' W 120°41'611.6
2017-Sep-17 12:00N 33°46' W 120°36'611.4
2017-Sep-17 11:30N 33°43' W 120°30'611.6
2017-Sep-17 11:00N 33°40' W 120°24'611.6
2017-Sep-17 10:30N 33°38' W 120°17'611.5
2017-Sep-17 10:00N 33°38' W 120°10'611.0
2017-Sep-17 09:26N 33°38' W 120°03'511.1
2017-Sep-17 09:01N 33°38' W 119°57'611.7
2017-Sep-17 08:30N 33°39' W 119°50'611.5
2017-Sep-17 08:00N 33°39' W 119°43'611.7
2017-Sep-17 07:30N 33°39' W 119°36'611.7
2017-Sep-17 07:00N 33°40' W 119°29'611.7
2017-Sep-17 06:30N 33°40' W 119°22'611.7
2017-Sep-17 06:00N 33°41' W 119°15'611.7
2017-Sep-17 05:30N 33°41' W 119°08'611.6
2017-Sep-17 05:00N 33°41' W 119°01'611.5
2017-Sep-17 04:30N 33°40' W 118°54'611.7
2017-Sep-17 03:59N 33°40' W 118°47'611.6
2017-Sep-17 03:29N 33°39' W 118°40'611.7
2017-Sep-17 02:57N 33°39' W 118°33'511.7
2017-Sep-17 02:30N 33°39' W 118°26'611.5
2017-Sep-17 02:01N 33°39' W 118°20'5 9.8
2017-Sep-17 01:30N 33°42' W 118°15'3 6.3
2017-Sep-17 01:00N 33°44' W 118°17'1 1.8
2017-Sep-17 00:30N 33°45' W 118°17'0 0.1
2017-Sep-16 23:58N 33°45' W 118°17'0 0.0
2017-Sep-16 23:22N 33°45' W 118°17'0 0.0
2017-Sep-16 22:58N 33°45' W 118°17'0 0.0
2017-Sep-16 22:28N 33°45' W 118°17'0 0.0
2017-Sep-16 21:52N 33°45' W 118°17'0 0.0
2017-Sep-16 21:16N 33°45' W 118°17'0 0.0
2017-Sep-16 20:46N 33°45' W 118°17'0 0.0
2017-Sep-16 20:28N 33°45' W 118°17'0 0.0
2017-Sep-16 19:58N 33°45' W 118°17'0 0.0
2017-Sep-16 18:46N 33°45' W 118°17'0 0.0
2017-Sep-16 18:22N 33°45' W 118°17'0 0.0
2017-Sep-16 17:46N 33°45' W 118°17'0 0.0
2017-Sep-16 16:34N 33°45' W 118°17'0 0.0
2017-Sep-16 16:22N 33°45' W 118°17'0 0.0
2017-Sep-16 15:10N 33°45' W 118°17'0 0.0
2017-Sep-16 14:58N 33°45' W 118°17'0 0.1
2017-Sep-16 14:10N 33°45' W 118°17'0 0.1
2017-Sep-16 13:46N 33°45' W 118°17'0 0.0
2017-Sep-16 13:28N 33°45' W 118°17'0 0.0
2017-Sep-16 12:52N 33°45' W 118°17'0 0.0
2017-Sep-16 12:10N 33°45' W 118°17'0 0.0
2017-Sep-16 10:46N 33°45' W 118°17'0 0.0
2017-Sep-16 10:10N 33°45' W 118°17'0 0.0
2017-Sep-16 09:52N 33°45' W 118°17'0 0.0
2017-Sep-16 09:28N 33°45' W 118°17'0 0.0
2017-Sep-16 08:58N 33°45' W 118°17'0 0.1
2017-Sep-16 08:28N 33°45' W 118°17'0 0.0
2017-Sep-16 07:43N 33°45' W 118°17'0 0.0
2017-Sep-16 07:28N 33°45' W 118°17'0 0.1
2017-Sep-16 06:58N 33°45' W 118°17'0 0.0
2017-Sep-16 06:04N 33°45' W 118°17'0 0.1
2017-Sep-16 05:58N 33°45' W 118°17'0 0.0
2017-Sep-16 05:16N 33°45' W 118°17'0 0.0
2017-Sep-16 04:46N 33°45' W 118°17'0 0.0
2017-Sep-16 04:28N 33°45' W 118°17'0 0.0
2017-Sep-16 03:46N 33°45' W 118°17'0 0.0
2017-Sep-16 03:28N 33°45' W 118°17'0 0.0
2017-Sep-16 02:58N 33°45' W 118°17'0 0.0
2017-Sep-16 02:13N 33°45' W 118°17'0 0.0
2017-Sep-16 01:52N 33°45' W 118°17'0 0.0
2017-Sep-16 01:22N 33°45' W 118°17'0 0.0
2017-Sep-16 00:58N 33°45' W 118°17'0 0.0
2017-Sep-16 00:22N 33°45' W 118°17'0 0.0
2017-Sep-15 23:46N 33°45' W 118°17'0 0.0
2017-Sep-15 23:10N 33°45' W 118°17'0 0.0
2017-Sep-15 22:58N 33°45' W 118°17'0 0.1
2017-Sep-15 22:28N 33°45' W 118°17'0 0.1
2017-Sep-15 21:58N 33°45' W 118°17'0 0.0
2017-Sep-15 21:28N 33°45' W 118°17'0 0.0
2017-Sep-15 20:58N 33°45' W 118°17'0 0.0
2017-Sep-15 20:28N 33°45' W 118°17'0 0.0
2017-Sep-15 19:58N 33°45' W 118°17'0 0.0
2017-Sep-15 19:28N 33°45' W 118°17'0 0.0
2017-Sep-15 18:40N 33°45' W 118°17'0 0.2
2017-Sep-15 18:28N 33°45' W 118°17'0 0.1
2017-Sep-15 17:58N 33°45' W 118°17'0 0.1
2017-Sep-15 17:28N 33°45' W 118°17'0 0.1
2017-Sep-15 16:58N 33°45' W 118°17'0 0.0
2017-Sep-15 16:28N 33°45' W 118°17'0 0.0
2017-Sep-15 15:58N 33°45' W 118°17'0 0.0
2017-Sep-15 15:22N 33°45' W 118°17'0 0.0
2017-Sep-15 14:22N 33°45' W 118°17'0 0.0
2017-Sep-15 13:52N 33°45' W 118°17'0 0.0
2017-Sep-15 13:28N 33°45' W 118°17'0 0.0
2017-Sep-15 12:55N 33°45' W 118°17'0 0.0
2017-Sep-15 12:19N 33°45' W 118°17'0 0.0
2017-Sep-15 11:55N 33°45' W 118°17'0 0.0
2017-Sep-15 11:28N 33°45' W 118°17'0 0.0
2017-Sep-15 10:46N 33°45' W 118°17'0 0.0
2017-Sep-15 10:22N 33°45' W 118°17'0 0.0
2017-Sep-15 09:58N 33°45' W 118°17'0 0.0
2017-Sep-15 09:22N 33°45' W 118°17'0 0.0
2017-Sep-15 08:58N 33°45' W 118°17'0 0.0
2017-Sep-15 08:28N 33°45' W 118°17'0 0.0
2017-Sep-15 07:58N 33°45' W 118°17'0 0.0
2017-Sep-15 07:28N 33°45' W 118°17'0 0.0
2017-Sep-15 06:58N 33°45' W 118°17'0 0.0
2017-Sep-15 06:28N 33°45' W 118°17'0 0.0
2017-Sep-15 05:46N 33°45' W 118°17'0 0.0
2017-Sep-15 05:28N 33°45' W 118°17'0 0.0
2017-Sep-15 04:46N 33°45' W 118°17'0 0.0
2017-Sep-15 04:28N 33°45' W 118°17'0 0.0
2017-Sep-15 03:58N 33°45' W 118°17'0 0.0
2017-Sep-15 03:28N 33°45' W 118°17'0 0.0
2017-Sep-15 02:58N 33°45' W 118°17'0 0.0
2017-Sep-15 02:22N 33°45' W 118°17'0 0.0
2017-Sep-15 01:52N 33°45' W 118°17'0 0.0
2017-Sep-15 01:28N 33°45' W 118°17'0 0.0
2017-Sep-15 00:58N 33°45' W 118°17'0 0.0
2017-Sep-15 00:28N 33°45' W 118°17'0 0.0
2017-Sep-14 23:58N 33°45' W 118°17'0 0.0
2017-Sep-14 23:28N 33°45' W 118°17'0 0.0
2017-Sep-14 22:58N 33°45' W 118°17'0 0.0
2017-Sep-14 22:28N 33°45' W 118°17'0 0.0
2017-Sep-14 21:58N 33°45' W 118°17'0 0.0
2017-Sep-14 21:28N 33°45' W 118°17'0 0.0
2017-Sep-14 20:58N 33°45' W 118°17'0 0.0
2017-Sep-14 20:28N 33°45' W 118°17'0 0.0
2017-Sep-14 19:52N 33°45' W 118°17'0 0.0
2017-Sep-14 19:28N 33°45' W 118°17'0 0.0
2017-Sep-14 18:52N 33°45' W 118°17'0 0.0
2017-Sep-14 18:22N 33°45' W 118°17'0 0.0
2017-Sep-14 17:58N 33°45' W 118°17'0 0.1
2017-Sep-14 17:22N 33°45' W 118°17'0 0.1
2017-Sep-14 16:58N 33°45' W 118°17'0 0.0
2017-Sep-14 16:28N 33°45' W 118°17'0 0.0
2017-Sep-14 15:58N 33°45' W 118°17'0 0.0
2017-Sep-14 15:28N 33°45' W 118°17'0 0.0
2017-Sep-14 14:58N 33°45' W 118°17'0 0.0
2017-Sep-14 14:22N 33°45' W 118°17'0 0.0
2017-Sep-14 13:58N 33°45' W 118°17'0 0.0
2017-Sep-14 13:28N 33°45' W 118°17'0 0.0
2017-Sep-14 12:58N 33°45' W 118°17'0 0.0
2017-Sep-14 12:16N 33°45' W 118°17'0 0.0
2017-Sep-14 11:46N 33°45' W 118°17'0 0.0
2017-Sep-14 11:28N 33°45' W 118°17'0 0.0
2017-Sep-14 10:46N 33°45' W 118°17'0 0.0
2017-Sep-14 10:28N 33°45' W 118°17'0 0.0
2017-Sep-14 09:52N 33°45' W 118°17'0 0.0
2017-Sep-14 09:28N 33°45' W 118°17'0 0.0
2017-Sep-14 08:58N 33°45' W 118°17'0 0.1
2017-Sep-14 08:16N 33°45' W 118°17'0 0.0
2017-Sep-14 07:58N 33°45' W 118°17'0 0.0
2017-Sep-14 07:28N 33°45' W 118°17'0 0.0
2017-Sep-14 06:52N 33°45' W 118°17'0 0.1
2017-Sep-14 06:22N 33°45' W 118°17'0 0.0
2017-Sep-14 05:58N 33°45' W 118°17'0 0.0
2017-Sep-14 05:28N 33°45' W 118°17'0 0.0
2017-Sep-14 04:58N 33°45' W 118°17'0 0.0
2017-Sep-14 04:22N 33°45' W 118°17'0 0.0
2017-Sep-14 03:58N 33°45' W 118°17'0 0.0
2017-Sep-14 03:22N 33°45' W 118°17'0 0.0
2017-Sep-14 02:58N 33°45' W 118°17'0 0.0
2017-Sep-14 02:28N 33°45' W 118°17'0 0.0
2017-Sep-14 01:52N 33°45' W 118°17'0 0.0
2017-Sep-14 01:28N 33°45' W 118°17'0 0.0
2017-Sep-14 00:55N 33°45' W 118°17'0 0.0
2017-Sep-14 00:28N 33°45' W 118°17'0 0.0
2017-Sep-13 23:58N 33°45' W 118°17'0 0.0
2017-Sep-13 23:28N 33°45' W 118°17'0 0.9
2017-Sep-13 23:01N 33°45' W 118°16'2 4.8
2017-Sep-13 22:30N 33°43' W 118°15'5 9.6
2017-Sep-13 22:01N 33°38' W 118°13'4 7.9
2017-Sep-13 21:31N 33°36' W 118°18'5 9.5
2017-Sep-13 21:00N 33°36' W 118°23'510.4
2017-Sep-13 20:30N 33°36' W 118°30'510.6
2017-Sep-13 20:00N 33°36' W 118°36'611.2
2017-Sep-13 19:30N 33°36' W 118°43'611.8
2017-Sep-13 19:00N 33°37' W 118°50'611.7
2017-Sep-13 18:30N 33°37' W 118°57'611.7
2017-Sep-13 18:00N 33°38' W 119°04'611.6
2017-Sep-13 17:30N 33°38' W 119°11'611.4
2017-Sep-13 17:00N 33°38' W 119°18'611.3
2017-Sep-13 16:30N 33°38' W 119°24'611.4
2017-Sep-13 16:00N 33°38' W 119°31'611.4
2017-Sep-13 15:30N 33°37' W 119°38'4 8.7
2017-Sep-13 15:00N 33°37' W 119°43'611.4
2017-Sep-13 14:29N 33°37' W 119°50'511.3
2017-Sep-13 14:00N 33°37' W 119°57'611.5
2017-Sep-13 13:30N 33°37' W 120°04'611.3
2017-Sep-13 12:59N 33°37' W 120°11'611.6
2017-Sep-13 12:29N 33°37' W 120°18'511.6
2017-Sep-13 12:00N 33°37' W 120°25'611.6
2017-Sep-13 11:29N 33°37' W 120°32'511.5
2017-Sep-13 11:00N 33°37' W 120°38'611.5
2017-Sep-13 10:30N 33°37' W 120°45'611.6
2017-Sep-13 10:00N 33°37' W 120°52'611.5
2017-Sep-13 09:30N 33°37' W 120°59'611.5
2017-Sep-13 09:00N 33°37' W 121°06'816.8
2017-Sep-13 08:30N 33°38' W 121°16'1019.0
2017-Sep-13 08:00N 33°38' W 121°28'1019.1
2017-Sep-13 07:30N 33°38' W 121°39'1119.6
2017-Sep-13 06:55N 33°38' W 121°53'820.4
2017-Sep-13 06:30N 33°39' W 122°03'7620.4
2017-Sep-13 02:46N 33°42' W 123°35'18220.3
2017-Sep-12 17:48N 34°53' W 126°58'1721.1
2017-Sep-12 17:01N 35°02' W 127°15'120.8
2017-Sep-12 16:59N 35°02' W 127°16'6221.2
2017-Sep-12 14:05N 35°33' W 128°21'  
Track history (hours):
 
Tides and Currents Weather Stations Pressure Air Temp Water Temp Dewpoint Dewpoint Depression Visibility Wind Speed Wind Dir Waves Ship Positions

YM Masculinity

Last reported at 2017-Sep-19 21:28 UTC. Time now 2017-Sep-25 11:26 UTC.
Position N 38°29' W 123°58'.

Length 306 m; draft 10.6 m.

Type: Ship (hazmat cat A). MMSI: 636015183.

Date/timePositionNaut miles runAvg speedWind from/ knotsBaromVisibWave heightAir tempDewpointWater temp
2017-Sep-19 21:28N 38°29' W 123°58'612.5
2017-Sep-19 21:00N 38°25' W 123°51'612.7
2017-Sep-19 20:30N 38°22' W 123°45'612.8
2017-Sep-19 20:00N 38°18' W 123°38'613.0
2017-Sep-19 19:30N 38°15' W 123°31'613.0
2017-Sep-19 19:00N 38°11' W 123°24'510.6
2017-Sep-19 18:30N 38°08' W 123°19'5 9.5
2017-Sep-19 18:00N 38°04' W 123°15'5 9.6
2017-Sep-19 17:30N 38°01' W 123°11'5 9.5
2017-Sep-19 17:00N 37°58' W 123°07'5 9.6
2017-Sep-19 16:30N 37°55' W 123°01'5 9.5
2017-Sep-19 16:00N 37°53' W 122°56'5 9.6
2017-Sep-19 15:30N 37°50' W 122°51'5 9.7
2017-Sep-19 15:00N 37°48' W 122°46'4 8.1
2017-Sep-19 14:31N 37°46' W 122°41'816.9
2017-Sep-19 14:00N 37°48' W 122°31'612.4
2017-Sep-19 13:30N 37°49' W 122°23'3 7.0
2017-Sep-19 13:00N 37°48' W 122°19'1 1.9
2017-Sep-19 12:31N 37°48' W 122°17'1 1.9
2017-Sep-19 12:00N 37°48' W 122°19'0 0.0
2017-Sep-19 11:28N 37°48' W 122°19'0 0.0
2017-Sep-19 10:58N 37°48' W 122°19'0 0.0
2017-Sep-19 10:28N 37°48' W 122°19'0 0.0
2017-Sep-19 09:58N 37°48' W 122°19'0 0.0
2017-Sep-19 09:28N 37°48' W 122°19'0 0.0
2017-Sep-19 08:58N 37°48' W 122°19'0 0.0
2017-Sep-19 08:28N 37°48' W 122°19'0 0.0
2017-Sep-19 07:58N 37°48' W 122°19'0 0.0
2017-Sep-19 07:28N 37°48' W 122°19'0 0.0
2017-Sep-19 06:58N 37°48' W 122°19'0 0.0
2017-Sep-19 06:28N 37°48' W 122°19'0 0.0
2017-Sep-19 05:58N 37°48' W 122°19'0 0.0
2017-Sep-19 05:28N 37°48' W 122°19'0 0.0
2017-Sep-19 04:58N 37°48' W 122°19'0 0.0
2017-Sep-19 04:28N 37°48' W 122°19'0 0.0
2017-Sep-19 03:58N 37°48' W 122°19'0 0.0
2017-Sep-19 03:28N 37°48' W 122°19'0 0.0
2017-Sep-19 02:58N 37°48' W 122°19'0 0.0
2017-Sep-19 02:28N 37°48' W 122°19'0 0.0
2017-Sep-19 01:58N 37°48' W 122°19'0 0.0
2017-Sep-19 01:28N 37°48' W 122°19'0 0.0
2017-Sep-19 00:58N 37°48' W 122°19'0 0.0
2017-Sep-19 00:28N 37°48' W 122°19'0 0.0
2017-Sep-18 23:58N 37°48' W 122°19'0 0.0
2017-Sep-18 23:28N 37°48' W 122°19'0 0.0
2017-Sep-18 22:58N 37°48' W 122°19'0 0.0
2017-Sep-18 22:28N 37°48' W 122°19'0 0.0
2017-Sep-18 21:58N 37°48' W 122°19'0 0.0
2017-Sep-18 21:28N 37°48' W 122°19'0 0.0
2017-Sep-18 20:58N 37°48' W 122°19'0 0.0
2017-Sep-18 20:28N 37°48' W 122°19'0 0.0
2017-Sep-18 19:58N 37°48' W 122°19'0 0.0
2017-Sep-18 19:28N 37°48' W 122°19'0 0.0
2017-Sep-18 18:58N 37°48' W 122°19'0 0.0
2017-Sep-18 18:28N 37°48' W 122°19'0 0.0
2017-Sep-18 17:58N 37°48' W 122°19'0 0.0
2017-Sep-18 17:28N 37°48' W 122°19'0 0.0
2017-Sep-18 16:58N 37°48' W 122°19'0 0.0
2017-Sep-18 16:28N 37°48' W 122°19'0 0.0
2017-Sep-18 15:58N 37°48' W 122°19'0 0.0
2017-Sep-18 15:28N 37°48' W 122°19'0 0.0
2017-Sep-18 14:58N 37°48' W 122°19'0 0.0
2017-Sep-18 14:28N 37°48' W 122°19'0 0.0
2017-Sep-18 13:58N 37°48' W 122°19'0 0.0
2017-Sep-18 13:28N 37°48' W 122°19'0 0.0
2017-Sep-18 12:58N 37°48' W 122°19'0 0.0
2017-Sep-18 12:28N 37°48' W 122°19'0 0.0
2017-Sep-18 11:58N 37°48' W 122°19'0 0.0
2017-Sep-18 11:28N 37°48' W 122°19'0 0.0
2017-Sep-18 10:58N 37°48' W 122°19'0 0.0
2017-Sep-18 10:25N 37°48' W 122°19'0 0.0
2017-Sep-18 09:58N 37°48' W 122°19'0 0.0
2017-Sep-18 09:28N 37°48' W 122°19'0 0.0
2017-Sep-18 08:58N 37°48' W 122°19'0 0.0
2017-Sep-18 08:28N 37°48' W 122°19'0 0.0
2017-Sep-18 07:58N 37°48' W 122°19'0 0.0
2017-Sep-18 07:28N 37°48' W 122°19'0 0.0
2017-Sep-18 06:58N 37°48' W 122°19'0 0.0
2017-Sep-18 06:28N 37°48' W 122°19'0 0.0
2017-Sep-18 05:58N 37°48' W 122°19'0 0.0
2017-Sep-18 05:28N 37°48' W 122°19'0 0.7
2017-Sep-18 05:00N 37°48' W 122°19'3 6.0
2017-Sep-18 04:30N 37°48' W 122°23'611.4
2017-Sep-18 04:00N 37°48' W 122°30'917.5
2017-Sep-18 03:31N 37°45' W 122°40'4 8.1
2017-Sep-18 03:00N 37°40' W 122°40'4 8.3
2017-Sep-18 02:30N 37°36' W 122°39'4 8.4
2017-Sep-18 02:00N 37°32' W 122°39'5 9.2
2017-Sep-18 01:30N 37°27' W 122°40'5 9.9
2017-Sep-18 01:01N 37°23' W 122°40'5 9.7
2017-Sep-18 00:30N 37°18' W 122°40'918.6
2017-Sep-18 00:00N 37°09' W 122°37'1019.4
2017-Sep-17 23:28N 36°59' W 122°33'612.2
2017-Sep-17 23:00N 36°53' W 122°31'1121.6
2017-Sep-17 22:30N 36°43' W 122°25'1121.7
2017-Sep-17 22:00N 36°33' W 122°20'2622.0
2017-Sep-17 20:49N 36°09' W 122°08'6721.7
2017-Sep-17 17:45N 35°08' W 121°37'521.7
2017-Sep-17 17:30N 35°03' W 121°34'1921.8
2017-Sep-17 16:38N 34°45' W 121°26'321.9
2017-Sep-17 16:30N 34°43' W 121°24'1121.6
2017-Sep-17 16:00N 34°33' W 121°19'1121.8
2017-Sep-17 15:30N 34°23' W 121°14'1121.8
2017-Sep-17 15:00N 34°12' W 121°09'1121.4
2017-Sep-17 14:31N 34°03' W 121°04'611.9
2017-Sep-17 14:00N 33°59' W 120°59'611.5
2017-Sep-17 13:30N 33°56' W 120°53'611.4
2017-Sep-17 13:00N 33°53' W 120°47'611.5
2017-Sep-17 12:30N 33°49' W 120°41'611.6
2017-Sep-17 12:00N 33°46' W 120°36'611.4
2017-Sep-17 11:30N 33°43' W 120°30'611.6
2017-Sep-17 11:00N 33°40' W 120°24'611.6
2017-Sep-17 10:30N 33°38' W 120°17'611.5
2017-Sep-17 10:00N 33°38' W 120°10'611.0
2017-Sep-17 09:26N 33°38' W 120°03'511.1
2017-Sep-17 09:01N 33°38' W 119°57'611.7
2017-Sep-17 08:30N 33°39' W 119°50'611.5
2017-Sep-17 08:00N 33°39' W 119°43'611.7
2017-Sep-17 07:30N 33°39' W 119°36'611.7
2017-Sep-17 07:00N 33°40' W 119°29'611.7
2017-Sep-17 06:30N 33°40' W 119°22'611.7
2017-Sep-17 06:00N 33°41' W 119°15'611.7
2017-Sep-17 05:30N 33°41' W 119°08'611.6
2017-Sep-17 05:00N 33°41' W 119°01'611.5
2017-Sep-17 04:30N 33°40' W 118°54'611.7
2017-Sep-17 03:59N 33°40' W 118°47'611.6
2017-Sep-17 03:29N 33°39' W 118°40'611.7
2017-Sep-17 02:57N 33°39' W 118°33'511.7
2017-Sep-17 02:30N 33°39' W 118°26'611.5
2017-Sep-17 02:01N 33°39' W 118°20'5 9.8
2017-Sep-17 01:30N 33°42' W 118°15'3 6.3
2017-Sep-17 01:00N 33°44' W 118°17'1 1.8
2017-Sep-17 00:30N 33°45' W 118°17'0 0.1
2017-Sep-16 23:58N 33°45' W 118°17'0 0.0
2017-Sep-16 23:22N 33°45' W 118°17'0 0.0
2017-Sep-16 22:58N 33°45' W 118°17'0 0.0
2017-Sep-16 22:28N 33°45' W 118°17'0 0.0
2017-Sep-16 21:52N 33°45' W 118°17'0 0.0
2017-Sep-16 21:16N 33°45' W 118°17'0 0.0
2017-Sep-16 20:46N 33°45' W 118°17'0 0.0
2017-Sep-16 20:28N 33°45' W 118°17'0 0.0
2017-Sep-16 19:58N 33°45' W 118°17'0 0.0
2017-Sep-16 18:46N 33°45' W 118°17'0 0.0
2017-Sep-16 18:22N 33°45' W 118°17'0 0.0
2017-Sep-16 17:46N 33°45' W 118°17'0 0.0
2017-Sep-16 16:34N 33°45' W 118°17'0 0.0
2017-Sep-16 16:22N 33°45' W 118°17'0 0.0
2017-Sep-16 15:10N 33°45' W 118°17'0 0.0
2017-Sep-16 14:58N 33°45' W 118°17'0 0.1
2017-Sep-16 14:10N 33°45' W 118°17'0 0.1
2017-Sep-16 13:46N 33°45' W 118°17'0 0.0
2017-Sep-16 13:28N 33°45' W 118°17'0 0.0
2017-Sep-16 12:52N 33°45' W 118°17'0 0.0
2017-Sep-16 12:10N 33°45' W 118°17'0 0.0
2017-Sep-16 10:46N 33°45' W 118°17'0 0.0
2017-Sep-16 10:10N 33°45' W 118°17'0 0.0
2017-Sep-16 09:52N 33°45' W 118°17'0 0.0
2017-Sep-16 09:28N 33°45' W 118°17'0 0.0
2017-Sep-16 08:58N 33°45' W 118°17'0 0.1
2017-Sep-16 08:28N 33°45' W 118°17'0 0.0
2017-Sep-16 07:43N 33°45' W 118°17'0 0.0
2017-Sep-16 07:28N 33°45' W 118°17'0 0.1
2017-Sep-16 06:58N 33°45' W 118°17'0 0.0
2017-Sep-16 06:04N 33°45' W 118°17'0 0.1
2017-Sep-16 05:58N 33°45' W 118°17'0 0.0
2017-Sep-16 05:16N 33°45' W 118°17'0 0.0
2017-Sep-16 04:46N 33°45' W 118°17'0 0.0
2017-Sep-16 04:28N 33°45' W 118°17'0 0.0
2017-Sep-16 03:46N 33°45' W 118°17'0 0.0
2017-Sep-16 03:28N 33°45' W 118°17'0 0.0
2017-Sep-16 02:58N 33°45' W 118°17'0 0.0
2017-Sep-16 02:13N 33°45' W 118°17'0 0.0
2017-Sep-16 01:52N 33°45' W 118°17'0 0.0
2017-Sep-16 01:22N 33°45' W 118°17'0 0.0
2017-Sep-16 00:58N 33°45' W 118°17'0 0.0
2017-Sep-16 00:22N 33°45' W 118°17'0 0.0
2017-Sep-15 23:46N 33°45' W 118°17'0 0.0
2017-Sep-15 23:10N 33°45' W 118°17'0 0.0
2017-Sep-15 22:58N 33°45' W 118°17'0 0.1
2017-Sep-15 22:28N 33°45' W 118°17'0 0.1
2017-Sep-15 21:58N 33°45' W 118°17'0 0.0
2017-Sep-15 21:28N 33°45' W 118°17'0 0.0
2017-Sep-15 20:58N 33°45' W 118°17'0 0.0
2017-Sep-15 20:28N 33°45' W 118°17'0 0.0
2017-Sep-15 19:58N 33°45' W 118°17'0 0.0
2017-Sep-15 19:28N 33°45' W 118°17'0 0.0
2017-Sep-15 18:40N 33°45' W 118°17'0 0.2
2017-Sep-15 18:28N 33°45' W 118°17'0 0.1
2017-Sep-15 17:58N 33°45' W 118°17'0 0.1
2017-Sep-15 17:28N 33°45' W 118°17'0 0.1
2017-Sep-15 16:58N 33°45' W 118°17'0 0.0
2017-Sep-15 16:28N 33°45' W 118°17'0 0.0
2017-Sep-15 15:58N 33°45' W 118°17'0 0.0
2017-Sep-15 15:22N 33°45' W 118°17'0 0.0
2017-Sep-15 14:22N 33°45' W 118°17'0 0.0
2017-Sep-15 13:52N 33°45' W 118°17'0 0.0
2017-Sep-15 13:28N 33°45' W 118°17'0 0.0
2017-Sep-15 12:55N 33°45' W 118°17'0 0.0
2017-Sep-15 12:19N 33°45' W 118°17'0 0.0
2017-Sep-15 11:55N 33°45' W 118°17'0 0.0
2017-Sep-15 11:28N 33°45' W 118°17'0 0.0
2017-Sep-15 10:46N 33°45' W 118°17'0 0.0
2017-Sep-15 10:22N 33°45' W 118°17'0 0.0
2017-Sep-15 09:58N 33°45' W 118°17'0 0.0
2017-Sep-15 09:22N 33°45' W 118°17'0 0.0
2017-Sep-15 08:58N 33°45' W 118°17'0 0.0
2017-Sep-15 08:28N 33°45' W 118°17'0 0.0
2017-Sep-15 07:58N 33°45' W 118°17'0 0.0
2017-Sep-15 07:28N 33°45' W 118°17'0 0.0
2017-Sep-15 06:58N 33°45' W 118°17'0 0.0
2017-Sep-15 06:28N 33°45' W 118°17'0 0.0
2017-Sep-15 05:46N 33°45' W 118°17'0 0.0
2017-Sep-15 05:28N 33°45' W 118°17'0 0.0
2017-Sep-15 04:46N 33°45' W 118°17'0 0.0
2017-Sep-15 04:28N 33°45' W 118°17'0 0.0
2017-Sep-15 03:58N 33°45' W 118°17'0 0.0
2017-Sep-15 03:28N 33°45' W 118°17'0 0.0
2017-Sep-15 02:58N 33°45' W 118°17'0 0.0
2017-Sep-15 02:22N 33°45' W 118°17'0 0.0
2017-Sep-15 01:52N 33°45' W 118°17'0 0.0
2017-Sep-15 01:28N 33°45' W 118°17'0 0.0
2017-Sep-15 00:58N 33°45' W 118°17'0 0.0
2017-Sep-15 00:28N 33°45' W 118°17'0 0.0
2017-Sep-14 23:58N 33°45' W 118°17'0 0.0
2017-Sep-14 23:28N 33°45' W 118°17'0 0.0
2017-Sep-14 22:58N 33°45' W 118°17'0 0.0
2017-Sep-14 22:28N 33°45' W 118°17'0 0.0
2017-Sep-14 21:58N 33°45' W 118°17'0 0.0
2017-Sep-14 21:28N 33°45' W 118°17'0 0.0
2017-Sep-14 20:58N 33°45' W 118°17'0 0.0
2017-Sep-14 20:28N 33°45' W 118°17'0 0.0
2017-Sep-14 19:52N 33°45' W 118°17'0 0.0
2017-Sep-14 19:28N 33°45' W 118°17'0 0.0
2017-Sep-14 18:52N 33°45' W 118°17'0 0.0
2017-Sep-14 18:22N 33°45' W 118°17'0 0.0
2017-Sep-14 17:58N 33°45' W 118°17'0 0.1
2017-Sep-14 17:22N 33°45' W 118°17'0 0.1
2017-Sep-14 16:58N 33°45' W 118°17'0 0.0
2017-Sep-14 16:28N 33°45' W 118°17'0 0.0
2017-Sep-14 15:58N 33°45' W 118°17'0 0.0
2017-Sep-14 15:28N 33°45' W 118°17'0 0.0
2017-Sep-14 14:58N 33°45' W 118°17'0 0.0
2017-Sep-14 14:22N 33°45' W 118°17'0 0.0
2017-Sep-14 13:58N 33°45' W 118°17'0 0.0
2017-Sep-14 13:28N 33°45' W 118°17'0 0.0
2017-Sep-14 12:58N 33°45' W 118°17'0 0.0
2017-Sep-14 12:16N 33°45' W 118°17'0 0.0
2017-Sep-14 11:46N 33°45' W 118°17'0 0.0
2017-Sep-14 11:28N 33°45' W 118°17'0 0.0
2017-Sep-14 10:46N 33°45' W 118°17'0 0.0
2017-Sep-14 10:28N 33°45' W 118°17'0 0.0
2017-Sep-14 09:52N 33°45' W 118°17'0 0.0
2017-Sep-14 09:28N 33°45' W 118°17'0 0.0
2017-Sep-14 08:58N 33°45' W 118°17'0 0.1
2017-Sep-14 08:16N 33°45' W 118°17'0 0.0
2017-Sep-14 07:58N 33°45' W 118°17'0 0.0
2017-Sep-14 07:28N 33°45' W 118°17'0 0.0
2017-Sep-14 06:52N 33°45' W 118°17'0 0.1
2017-Sep-14 06:22N 33°45' W 118°17'0 0.0
2017-Sep-14 05:58N 33°45' W 118°17'0 0.0
2017-Sep-14 05:28N 33°45' W 118°17'0 0.0
2017-Sep-14 04:58N 33°45' W 118°17'0 0.0
2017-Sep-14 04:22N 33°45' W 118°17'0 0.0
2017-Sep-14 03:58N 33°45' W 118°17'0 0.0
2017-Sep-14 03:22N 33°45' W 118°17'0 0.0
2017-Sep-14 02:58N 33°45' W 118°17'0 0.0
2017-Sep-14 02:28N 33°45' W 118°17'0 0.0
2017-Sep-14 01:52N 33°45' W 118°17'0 0.0
2017-Sep-14 01:28N 33°45' W 118°17'0 0.0
2017-Sep-14 00:55N 33°45' W 118°17'0 0.0
2017-Sep-14 00:28N 33°45' W 118°17'0 0.0
2017-Sep-13 23:58N 33°45' W 118°17'0 0.0
2017-Sep-13 23:28N 33°45' W 118°17'0 0.9
2017-Sep-13 23:01N 33°45' W 118°16'2 4.8
2017-Sep-13 22:30N 33°43' W 118°15'5 9.6
2017-Sep-13 22:01N 33°38' W 118°13'4 7.9
2017-Sep-13 21:31N 33°36' W 118°18'5 9.5
2017-Sep-13 21:00N 33°36' W 118°23'510.4
2017-Sep-13 20:30N 33°36' W 118°30'510.6
2017-Sep-13 20:00N 33°36' W 118°36'611.2
2017-Sep-13 19:30N 33°36' W 118°43'611.8
2017-Sep-13 19:00N 33°37' W 118°50'611.7
2017-Sep-13 18:30N 33°37' W 118°57'611.7
2017-Sep-13 18:00N 33°38' W 119°04'611.6
2017-Sep-13 17:30N 33°38' W 119°11'611.4
2017-Sep-13 17:00N 33°38' W 119°18'611.3
2017-Sep-13 16:30N 33°38' W 119°24'611.4
2017-Sep-13 16:00N 33°38' W 119°31'611.4
2017-Sep-13 15:30N 33°37' W 119°38'4 8.7
2017-Sep-13 15:00N 33°37' W 119°43'611.4
2017-Sep-13 14:29N 33°37' W 119°50'511.3
2017-Sep-13 14:00N 33°37' W 119°57'611.5
2017-Sep-13 13:30N 33°37' W 120°04'611.3
2017-Sep-13 12:59N 33°37' W 120°11'611.6
2017-Sep-13 12:29N 33°37' W 120°18'511.6
2017-Sep-13 12:00N 33°37' W 120°25'611.6
2017-Sep-13 11:29N 33°37' W 120°32'511.5
2017-Sep-13 11:00N 33°37' W 120°38'611.5
2017-Sep-13 10:30N 33°37' W 120°45'611.6
2017-Sep-13 10:00N 33°37' W 120°52'611.5
2017-Sep-13 09:30N 33°37' W 120°59'611.5
2017-Sep-13 09:00N 33°37' W 121°06'816.8
2017-Sep-13 08:30N 33°38' W 121°16'1019.0
2017-Sep-13 08:00N 33°38' W 121°28'1019.1
2017-Sep-13 07:30N 33°38' W 121°39'1119.6
2017-Sep-13 06:55N 33°38' W 121°53'820.4
2017-Sep-13 06:30N 33°39' W 122°03'7620.4
2017-Sep-13 02:46N 33°42' W 123°35'18220.3
2017-Sep-12 17:48N 34°53' W 126°58'1721.1
2017-Sep-12 17:01N 35°02' W 127°15'120.8
2017-Sep-12 16:59N 35°02' W 127°16'6221.2
2017-Sep-12 14:05N 35°33' W 128°21'  

Dump ship's entire track history